Time;durP1;ratioP1;P1;durP2;ratioP2;P2;SDS_P1;SDS_P2;PMS_P1;PMS_P2;Temp;Humidity;BMP_temperature;BMP_pressure;BME280_temperature;BME280_humidity;BME280_pressure;Samples;Min_cycle;Max_cycle;Signal;HPM_P1;HPM_P2
2023/02/03 00:00:20;;;;;;;7.20;3.70;;;1.60;99.90;;;;;;4163218;28;20368;-64
2023/02/03 00:02:21;;;;;;;5.97;3.00;;;1.70;99.90;;;;;;4144264;28;20884;-69
2023/02/03 00:04:23;;;;;;;15.20;8.50;;;1.60;99.90;;;;;;4163198;28;20956;-63
2023/02/03 00:06:24;;;;;;;9.97;5.40;;;1.70;99.90;;;;;;4169988;28;20324;-65
2023/02/03 00:08:25;;;;;;;11.20;5.27;;;1.60;99.90;;;;;;4163393;28;20687;-64
2023/02/03 00:10:26;;;;;;;12.87;5.83;;;1.60;99.90;;;;;;4171927;28;20262;-64
2023/02/03 00:12:27;;;;;;;9.37;5.10;;;1.70;99.90;;;;;;4174025;28;20340;-66
2023/02/03 00:14:29;;;;;;;16.37;7.00;;;1.70;99.90;;;;;;4178318;28;20347;-63
2023/02/03 00:16:30;;;;;;;7.23;3.93;;;1.70;99.90;;;;;;4176484;28;20352;-63
2023/02/03 00:18:32;;;;;;;5.97;3.50;;;1.70;99.90;;;;;;4177084;28;20807;-64
2023/02/03 00:20:33;;;;;;;6.90;4.00;;;1.80;99.90;;;;;;4167762;28;20278;-66
2023/02/03 00:22:34;;;;;;;7.70;4.47;;;1.80;99.90;;;;;;4178889;28;20254;-63
2023/02/03 00:24:35;;;;;;;6.20;3.77;;;1.80;99.90;;;;;;4178592;28;20267;-62
2023/02/03 00:26:41;;;;;;;14.57;6.20;;;1.80;99.90;;;;;;4177658;28;20324;-62
2023/02/03 00:28:43;;;;;;;14.43;7.10;;;1.80;99.90;;;;;;4167542;28;20731;-68
2023/02/03 00:30:44;;;;;;;11.83;5.70;;;1.70;99.90;;;;;;4163918;28;20797;-68
2023/02/03 00:32:45;;;;;;;11.83;4.87;;;1.70;99.90;;;;;;4161485;28;20344;-63
2023/02/03 00:34:46;;;;;;;9.33;5.07;;;1.70;99.90;;;;;;4164268;28;20344;-67
2023/02/03 00:36:47;;;;;;;16.27;6.20;;;1.70;99.90;;;;;;4176657;28;20685;-64
2023/02/03 00:38:49;;;;;;;7.47;3.80;;;1.70;99.90;;;;;;4179218;28;20800;-65
2023/02/03 00:40:53;;;;;;;10.97;5.13;;;1.70;99.90;;;;;;4178163;28;20262;-64
2023/02/03 00:42:55;;;;;;;7.87;4.53;;;1.70;99.90;;;;;;4171252;28;20333;-66
2023/02/03 00:44:56;;;;;;;19.57;8.20;;;1.70;99.90;;;;;;4174771;28;20277;-69
2023/02/03 00:46:57;;;;;;;7.33;4.33;;;1.70;99.90;;;;;;4178795;28;20332;-66
2023/02/03 00:48:58;;;;;;;8.33;3.50;;;1.70;99.90;;;;;;4164637;28;20271;-64
2023/02/03 00:50:59;;;;;;;5.73;2.93;;;1.70;99.90;;;;;;4171176;28;20270;-65
2023/02/03 00:53:01;;;;;;;8.37;5.13;;;1.70;99.90;;;;;;4178152;28;20623;-65
2023/02/03 00:55:03;;;;;;;9.23;5.03;;;1.70;99.90;;;;;;4177129;28;20266;-66
2023/02/03 00:57:04;;;;;;;11.43;5.70;;;1.60;99.90;;;;;;4177943;28;20681;-63
2023/02/03 00:59:05;;;;;;;7.67;3.93;;;1.60;99.90;;;;;;4177978;28;20258;-64
2023/02/03 01:01:07;;;;;;;6.30;3.00;;;1.60;99.90;;;;;;4167750;28;20278;-62
2023/02/03 01:03:09;;;;;;;4.50;2.53;;;1.60;99.90;;;;;;4161152;28;20282;-67
2023/02/03 01:05:10;;;;;;;6.60;3.90;;;1.60;99.90;;;;;;4162239;28;20282;-67
2023/02/03 01:07:12;;;;;;;6.87;3.90;;;1.60;99.90;;;;;;4170836;28;20282;-64
2023/02/03 01:09:13;;;;;;;5.63;3.17;;;1.50;99.90;;;;;;4169430;28;20282;-65
2023/02/03 01:11:20;;;;;;;9.90;3.90;;;1.50;99.90;;;;;;4160651;28;20790;-64
2023/02/03 01:13:21;;;;;;;7.70;3.90;;;1.50;99.90;;;;;;4171463;28;20348;-63
2023/02/03 01:15:22;;;;;;;5.43;3.67;;;1.50;99.90;;;;;;4177118;28;20371;-66
2023/02/03 01:17:25;;;;;;;6.83;3.50;;;1.50;99.90;;;;;;4164664;28;20279;-67
2023/02/03 01:19:26;;;;;;;4.50;2.70;;;1.50;99.90;;;;;;4160901;28;20267;-64
2023/02/03 01:21:28;;;;;;;5.80;3.97;;;1.50;99.90;;;;;;4166294;28;20269;-66
2023/02/03 01:23:29;;;;;;;5.50;3.37;;;1.50;99.90;;;;;;4177543;28;20308;-67
2023/02/03 01:25:30;;;;;;;5.03;2.83;;;1.50;99.90;;;;;;4177685;28;20270;-63
2023/02/03 01:27:34;;;;;;;5.43;2.70;;;1.50;99.90;;;;;;4177372;28;20799;-64
2023/02/03 01:29:35;;;;;;;5.23;3.37;;;1.50;99.90;;;;;;4176735;28;20820;-63
2023/02/03 01:31:38;;;;;;;5.07;3.10;;;1.50;99.90;;;;;;4161611;28;20624;-68
2023/02/03 01:33:40;;;;;;;4.50;3.13;;;1.50;99.90;;;;;;4160290;28;20306;-64
2023/02/03 01:35:41;;;;;;;7.67;2.70;;;1.50;99.90;;;;;;4162848;28;20266;-65
2023/02/03 01:37:42;;;;;;;4.90;2.43;;;1.50;99.90;;;;;;4160127;28;20278;-63
2023/02/03 01:39:44;;;;;;;4.13;2.43;;;1.50;99.90;;;;;;4161912;28;20272;-63
2023/02/03 01:41:45;;;;;;;4.00;2.73;;;1.40;99.90;;;;;;4160578;28;20267;-63
2023/02/03 01:43:52;;;;;;;4.00;2.40;;;1.40;99.90;;;;;;4161805;28;20270;-63
2023/02/03 01:45:53;;;;;;;3.53;2.00;;;1.40;99.90;;;;;;4160726;28;20270;-69
2023/02/03 01:47:58;;;;;;;5.50;2.60;;;1.40;99.90;;;;;;4158070;28;20310;-66
2023/02/03 01:50:12;;;;;;;5.47;2.90;;;1.30;99.90;;;;;;4166046;28;20279;-64
2023/02/03 01:52:14;;;;;;;6.73;2.40;;;1.40;99.90;;;;;;4162536;28;20325;-68
2023/02/03 01:54:20;;;;;;;4.53;2.70;;;1.30;99.90;;;;;;4176946;28;20319;-65
2023/02/03 01:56:22;;;;;;;3.17;2.60;;;1.30;99.90;;;;;;4178221;28;20270;-65
2023/02/03 01:58:30;;;;;;;3.70;2.10;;;1.30;99.90;;;;;;4169868;28;20271;-64
2023/02/03 02:00:31;;;;;;;6.03;2.80;;;1.20;99.90;;;;;;4161629;28;20340;-67
2023/02/03 02:02:33;;;;;;;3.60;2.70;;;1.30;99.90;;;;;;4161134;28;20817;-65
2023/02/03 02:04:45;;;;;;;4.27;2.77;;;1.20;99.90;;;;;;4168580;28;20332;-64
2023/02/03 02:06:47;;;;;;;7.07;2.47;;;1.20;99.90;;;;;;4161815;28;20317;-65
2023/02/03 02:08:51;;;;;;;3.60;2.43;;;1.30;99.90;;;;;;4161387;28;20262;-64
2023/02/03 02:10:53;;;;;;;6.33;2.87;;;1.20;99.90;;;;;;4165990;28;20315;-66
2023/02/03 02:12:56;;;;;;;2.63;2.10;;;1.20;99.90;;;;;;4176965;28;20366;-64
2023/02/03 02:14:58;;;;;;;6.50;2.73;;;1.20;99.90;;;;;;4170915;28;20672;-66
2023/02/03 02:17:24;;;;;;;6.40;3.30;;;1.20;99.90;;;;;;4175216;28;20270;-64
2023/02/03 02:19:28;;;;;;;5.70;2.60;;;1.20;99.90;;;;;;4160930;28;20317;-65
2023/02/03 02:21:41;;;;;;;3.90;2.40;;;1.20;99.90;;;;;;4160724;28;20739;-67
2023/02/03 02:24:24;;;;;;;4.50;2.63;;;1.10;99.90;;;;;;4173419;28;20278;-65
2023/02/03 02:26:54;;;;;;;4.00;2.00;;;1.10;99.90;;;;;;4139170;28;20343;-70
2023/02/03 02:29:18;;;;;;;3.97;2.50;;;1.10;99.90;;;;;;4165508;28;20283;-65
2023/02/03 02:31:47;;;;;;;3.43;2.20;;;1.10;99.90;;;;;;4161552;28;20060;-65
2023/02/03 02:33:55;;;;;;;5.27;2.50;;;1.10;99.90;;;;;;4142179;28;20295;-64
2023/02/03 02:36:13;;;;;;;3.30;2.33;;;1.10;99.90;;;;;;4173517;28;20274;-63
2023/02/03 02:38:37;;;;;;;5.07;2.87;;;1.10;99.90;;;;;;4160328;28;20275;-68
2023/02/03 02:40:55;;;;;;;4.07;2.67;;;1.10;99.90;;;;;;4156161;28;20352;-64
2023/02/03 02:43:18;;;;;;;5.87;2.70;;;1.00;99.90;;;;;;4145537;28;20275;-68
2023/02/03 02:45:35;;;;;;;5.53;2.70;;;1.00;99.90;;;;;;4164247;28;20337;-65
2023/02/03 02:47:37;;;;;;;6.53;2.70;;;1.00;99.90;;;;;;4164001;28;20274;-63
2023/02/03 02:49:54;;;;;;;4.53;2.70;;;1.00;99.90;;;;;;4163412;28;20270;-63
2023/02/03 02:51:58;;;;;;;3.67;2.43;;;1.00;99.90;;;;;;4148477;28;20276;-69
2023/02/03 02:54:04;;;;;;;4.37;2.60;;;1.00;99.90;;;;;;4179136;28;20293;-66
2023/02/03 02:56:08;;;;;;;6.40;2.60;;;1.00;99.90;;;;;;4179016;28;20286;-63
2023/02/03 02:58:13;;;;;;;4.57;2.70;;;1.00;99.90;;;;;;4179021;28;20343;-64
2023/02/03 03:00:14;;;;;;;6.23;2.80;;;1.00;99.90;;;;;;4171732;28;20309;-64
2023/02/03 03:02:16;;;;;;;5.00;2.60;;;1.00;99.90;;;;;;4163915;28;20278;-65
2023/02/03 03:04:23;;;;;;;5.80;2.70;;;0.90;99.90;;;;;;4163578;28;20321;-62
2023/02/03 03:06:37;;;;;;;4.80;2.33;;;1.00;99.90;;;;;;4177691;28;20278;-63
2023/02/03 03:09:01;;;;;;;5.57;2.40;;;1.00;99.90;;;;;;4177989;28;20692;-63
2023/02/03 03:11:03;;;;;;;4.07;2.43;;;1.00;99.90;;;;;;4162039;28;20324;-67
2023/02/03 03:13:09;;;;;;;5.00;2.67;;;1.00;99.90;;;;;;4178053;28;20266;-68
2023/02/03 03:15:16;;;;;;;4.73;2.43;;;1.00;99.90;;;;;;4178666;28;20282;-68
2023/02/03 03:17:25;;;;;;;5.33;2.53;;;1.00;99.90;;;;;;4170375;28;20325;-65
2023/02/03 03:19:32;;;;;;;4.57;2.70;;;1.00;99.90;;;;;;4163613;28;20275;-66
2023/02/03 03:21:41;;;;;;;4.80;2.27;;;1.10;99.90;;;;;;4162697;28;20731;-63
2023/02/03 03:23:46;;;;;;;3.10;2.00;;;1.10;99.90;;;;;;4173032;28;20270;-68
2023/02/03 03:25:56;;;;;;;5.50;2.93;;;1.10;99.90;;;;;;4175055;28;20271;-65
2023/02/03 03:28:03;;;;;;;4.70;2.50;;;1.00;99.90;;;;;;4163963;28;20337;-64
2023/02/03 03:30:10;;;;;;;3.63;2.17;;;1.10;99.90;;;;;;4173960;28;20831;-66
2023/02/03 03:32:11;;;;;;;3.90;2.43;;;1.00;99.90;;;;;;4156634;28;20780;-65
2023/02/03 03:34:15;;;;;;;4.77;2.57;;;1.00;99.90;;;;;;4162468;28;20336;-70
2023/02/03 03:36:46;;;;;;;4.10;2.47;;;1.00;99.90;;;;;;4172507;28;20270;-64
2023/02/03 03:39:14;;;;;;;5.73;2.43;;;1.00;99.90;;;;;;4160829;28;20282;-64
2023/02/03 03:41:40;;;;;;;4.93;3.03;;;1.00;99.90;;;;;;4163209;28;20344;-67
2023/02/03 03:43:43;;;;;;;6.30;2.70;;;1.00;99.90;;;;;;4167822;28;20347;-64
2023/02/03 03:46:00;;;;;;;4.77;2.43;;;1.00;99.90;;;;;;4178834;28;20262;-64
2023/02/03 03:48:06;;;;;;;5.23;3.20;;;1.00;99.90;;;;;;4179095;28;20323;-70
2023/02/03 03:50:13;;;;;;;4.40;2.50;;;1.00;99.90;;;;;;4176275;28;20278;-66
2023/02/03 03:52:20;;;;;;;4.47;2.33;;;1.00;99.90;;;;;;4170870;28;20328;-66
2023/02/03 03:54:23;;;;;;;4.77;2.80;;;1.00;99.90;;;;;;4179240;28;20431;-66
2023/02/03 03:56:38;;;;;;;4.40;2.50;;;1.00;99.90;;;;;;4174420;28;20288;-65
2023/02/03 03:58:44;;;;;;;5.80;2.73;;;0.90;99.90;;;;;;4173531;28;20320;-63
2023/02/03 04:00:46;;;;;;;4.50;2.20;;;0.90;99.90;;;;;;4162346;28;20271;-64
2023/02/03 04:02:53;;;;;;;4.33;2.37;;;0.90;99.90;;;;;;4174372;28;20274;-64
2023/02/03 04:04:57;;;;;;;5.47;2.80;;;1.00;99.90;;;;;;4175384;28;20855;-65
2023/02/03 04:06:58;;;;;;;5.10;2.63;;;0.90;99.90;;;;;;4174894;28;20304;-62
2023/02/03 04:09:01;;;;;;;5.20;2.80;;;0.90;99.90;;;;;;4173238;28;20328;-65
2023/02/03 04:11:02;;;;;;;6.10;2.70;;;0.90;99.90;;;;;;4162714;28;20751;-66
2023/02/03 04:13:03;;;;;;;5.00;3.10;;;0.90;99.90;;;;;;4161864;28;20698;-65
2023/02/03 04:15:05;;;;;;;4.97;2.97;;;0.90;99.90;;;;;;4168404;28;20270;-63
2023/02/03 04:17:07;;;;;;;4.70;2.83;;;0.90;99.90;;;;;;4178035;28;20320;-63
2023/02/03 04:19:08;;;;;;;4.13;2.60;;;0.90;99.90;;;;;;4174285;28;20328;-67
2023/02/03 04:21:09;;;;;;;4.77;2.77;;;0.90;99.90;;;;;;4170006;28;20663;-67
2023/02/03 04:23:10;;;;;;;4.67;2.30;;;0.90;99.90;;;;;;4174902;28;20266;-70
2023/02/03 04:25:12;;;;;;;4.13;2.47;;;0.90;99.90;;;;;;4178437;28;20276;-68
2023/02/03 04:27:13;;;;;;;3.23;2.33;;;0.90;99.90;;;;;;4171273;28;20271;-66
2023/02/03 04:29:14;;;;;;;4.17;2.43;;;1.00;99.90;;;;;;4172249;28;20367;-64
2023/02/03 04:31:16;;;;;;;4.03;2.63;;;0.90;99.90;;;;;;4178360;28;20274;-67
2023/02/03 04:33:17;;;;;;;5.67;2.47;;;0.90;99.90;;;;;;4160928;28;20309;-65
2023/02/03 04:35:18;;;;;;;9.20;4.63;;;0.90;99.90;;;;;;4172921;28;20757;-62
2023/02/03 04:37:21;;;;;;;3.77;2.60;;;0.90;99.90;;;;;;4176666;28;20312;-68
2023/02/03 04:39:24;;;;;;;5.67;2.90;;;0.90;99.90;;;;;;4172218;28;20262;-68
2023/02/03 04:41:25;;;;;;;6.50;3.30;;;0.90;99.90;;;;;;4168662;28;21079;-63
2023/02/03 04:43:26;;;;;;;5.00;2.90;;;0.90;99.90;;;;;;4161320;28;20263;-63
2023/02/03 04:45:27;;;;;;;5.30;2.80;;;0.90;99.90;;;;;;4165496;28;20339;-67
2023/02/03 04:47:30;;;;;;;6.73;2.80;;;0.90;99.90;;;;;;4178059;28;20607;-63
2023/02/03 04:49:31;;;;;;;6.33;3.10;;;0.90;99.90;;;;;;4178303;28;20274;-66
2023/02/03 04:51:32;;;;;;;4.07;2.37;;;0.90;99.90;;;;;;4176810;28;20332;-68
2023/02/03 04:53:33;;;;;;;4.63;3.03;;;0.80;99.90;;;;;;4177968;28;20285;-65
2023/02/03 04:55:35;;;;;;;5.40;2.90;;;0.80;99.90;;;;;;4149436;28;20621;-65
2023/02/03 04:57:36;;;;;;;4.57;2.87;;;0.80;99.90;;;;;;4160874;28;20294;-65
2023/02/03 04:59:37;;;;;;;5.30;2.90;;;0.80;99.90;;;;;;4144663;28;20267;-65
2023/02/03 05:01:38;;;;;;;5.37;2.83;;;0.80;99.90;;;;;;4170122;28;20320;-70
2023/02/03 05:03:39;;;;;;;5.80;2.87;;;0.70;99.90;;;;;;4162717;28;20742;-66
2023/02/03 05:05:40;;;;;;;3.77;2.50;;;0.70;99.90;;;;;;4161131;28;20275;-66
2023/02/03 05:07:41;;;;;;;4.80;2.30;;;0.70;99.90;;;;;;4161920;28;20263;-67
2023/02/03 05:09:43;;;;;;;4.90;2.50;;;0.70;99.90;;;;;;4160808;28;20283;-71
2023/02/03 05:11:44;;;;;;;6.87;3.10;;;0.70;99.90;;;;;;4171380;28;20359;-68
2023/02/03 05:13:45;;;;;;;4.13;2.33;;;0.70;99.90;;;;;;4174695;28;20339;-62
2023/02/03 05:15:46;;;;;;;4.53;2.60;;;0.60;99.90;;;;;;4161845;28;20766;-65
2023/02/03 05:17:50;;;;;;;5.03;2.97;;;0.60;99.90;;;;;;4162079;28;20282;-66
2023/02/03 05:19:51;;;;;;;4.40;2.63;;;0.60;99.90;;;;;;4176405;28;20344;-61
2023/02/03 05:21:52;;;;;;;5.73;3.20;;;0.60;99.90;;;;;;4176211;28;20377;-63
2023/02/03 05:23:53;;;;;;;7.13;4.10;;;0.60;99.90;;;;;;4178063;28;20288;-63
2023/02/03 05:25:54;;;;;;;6.80;3.70;;;0.70;99.90;;;;;;4177038;28;20328;-63
2023/02/03 05:27:55;;;;;;;6.10;3.40;;;0.70;99.90;;;;;;4177460;28;20274;-64
2023/02/03 05:29:56;;;;;;;6.33;3.40;;;0.60;99.90;;;;;;4176381;28;20299;-63
2023/02/03 05:31:57;;;;;;;8.73;3.67;;;0.60;99.90;;;;;;4159078;28;20325;-65
2023/02/03 05:33:59;;;;;;;6.97;3.93;;;0.60;99.90;;;;;;4177314;28;20847;-62
2023/02/03 05:36:00;;;;;;;6.47;3.83;;;0.60;99.90;;;;;;4170259;28;21248;-70
2023/02/03 05:38:01;;;;;;;4.90;3.17;;;0.60;99.90;;;;;;4173871;28;20266;-70
2023/02/03 05:42:22;;;;;;;6.80;3.80;;;0.60;99.90;;;;;;4175863;28;20274;-63
2023/02/03 05:44:25;;;;;;;6.30;3.67;;;0.60;99.90;;;;;;4175896;28;20277;-63
2023/02/03 05:46:26;;;;;;;7.90;4.20;;;0.60;99.90;;;;;;4157131;28;20302;-66
2023/02/03 05:48:27;;;;;;;8.13;4.63;;;0.60;99.90;;;;;;4176808;28;20286;-71
2023/02/03 05:50:33;;;;;;;9.70;4.83;;;0.60;99.90;;;;;;4178321;28;20262;-63
2023/02/03 05:52:34;;;;;;;8.43;4.33;;;0.60;99.90;;;;;;4174227;28;20352;-63
2023/02/03 05:54:35;;;;;;;11.50;4.70;;;0.60;99.90;;;;;;4176294;28;20921;-66
2023/02/03 05:56:36;;;;;;;9.63;4.37;;;0.60;99.90;;;;;;4170500;28;21107;-67
2023/02/03 05:58:37;;;;;;;8.47;4.57;;;0.60;99.90;;;;;;4158011;28;20279;-67
2023/02/03 06:00:38;;;;;;;7.73;4.20;;;0.60;99.90;;;;;;4175525;28;20320;-68
2023/02/03 06:02:39;;;;;;;8.77;4.10;;;0.60;99.90;;;;;;4177007;28;20320;-65
2023/02/03 06:04:41;;;;;;;7.00;4.17;;;0.60;99.90;;;;;;4166913;28;20313;-64
2023/02/03 06:06:42;;;;;;;8.43;4.43;;;0.60;99.90;;;;;;4161633;28;20279;-64
2023/02/03 06:08:43;;;;;;;6.77;4.27;;;0.60;99.90;;;;;;4160187;28;20286;-64
2023/02/03 06:10:44;;;;;;;9.60;3.80;;;0.70;99.90;;;;;;4170355;28;20298;-61
2023/02/03 06:12:46;;;;;;;6.60;3.13;;;0.70;99.90;;;;;;4177388;28;20308;-67
2023/02/03 06:14:47;;;;;;;9.73;5.20;;;0.70;99.90;;;;;;4170471;28;20343;-64
2023/02/03 06:16:48;;;;;;;12.23;5.23;;;0.80;99.90;;;;;;4180876;28;20347;-69
2023/02/03 06:18:51;;;;;;;4.97;3.70;;;0.80;99.90;;;;;;4178860;28;20274;-65
2023/02/03 06:20:52;;;;;;;4.73;3.37;;;0.80;99.90;;;;;;4164324;28;20366;-65
2023/02/03 06:22:53;;;;;;;7.33;3.67;;;0.80;99.90;;;;;;4163030;28;20309;-68
2023/02/03 06:24:54;;;;;;;7.17;4.33;;;0.80;99.90;;;;;;4164320;28;20258;-65
2023/02/03 06:26:55;;;;;;;7.07;3.80;;;0.80;99.90;;;;;;4163100;28;20348;-70
2023/02/03 06:28:57;;;;;;;7.63;3.70;;;0.90;99.90;;;;;;4164424;28;20665;-64
2023/02/03 06:30:58;;;;;;;6.07;3.37;;;0.90;99.90;;;;;;4162587;28;20619;-66
2023/02/03 06:32:59;;;;;;;6.20;4.03;;;0.90;99.90;;;;;;4164428;28;20285;-72
2023/02/03 06:35:00;;;;;;;7.30;3.27;;;0.90;99.90;;;;;;4162970;28;20754;-63
2023/02/03 06:37:01;;;;;;;9.07;4.80;;;0.90;99.90;;;;;;4163978;28;20308;-65
2023/02/03 06:39:02;;;;;;;11.03;4.93;;;1.00;99.90;;;;;;4163632;28;20711;-68
2023/02/03 06:41:04;;;;;;;7.60;4.57;;;1.00;99.90;;;;;;4145752;28;20260;-71
2023/02/03 06:43:05;;;;;;;13.20;6.10;;;1.00;99.90;;;;;;4163697;28;20707;-65
2023/02/03 06:45:07;;;;;;;12.30;5.93;;;1.00;99.90;;;;;;4163151;28;20266;-67
2023/02/03 06:47:08;;;;;;;10.20;5.47;;;1.00;99.90;;;;;;4163203;28;20263;-65
2023/02/03 06:49:09;;;;;;;6.57;4.60;;;1.00;99.90;;;;;;4163199;28;20354;-68
2023/02/03 06:51:10;;;;;;;8.23;4.40;;;1.00;99.90;;;;;;4164157;28;21851;-67
2023/02/03 06:53:11;;;;;;;9.70;5.20;;;1.00;99.90;;;;;;4162118;28;20337;-67
2023/02/03 06:55:12;;;;;;;10.07;5.27;;;1.00;99.90;;;;;;4163444;28;20328;-65
2023/02/03 06:57:13;;;;;;;11.70;7.20;;;1.00;99.90;;;;;;4144570;28;20280;-69
2023/02/03 06:59:15;;;;;;;10.67;6.77;;;1.00;99.90;;;;;;4146451;28;20275;-71
2023/02/03 07:01:16;;;;;;;9.17;5.10;;;1.00;99.90;;;;;;4162571;28;20333;-67
2023/02/03 07:03:17;;;;;;;9.37;5.43;;;1.00;99.90;;;;;;4163097;28;20349;-73
2023/02/03 07:05:18;;;;;;;8.70;5.60;;;1.00;99.90;;;;;;4162868;28;20263;-67
2023/02/03 07:07:19;;;;;;;12.23;6.63;;;1.10;99.90;;;;;;4163016;28;20305;-67
2023/02/03 07:09:20;;;;;;;7.63;5.07;;;1.00;99.90;;;;;;4162345;28;20312;-63
2023/02/03 07:11:22;;;;;;;7.17;4.10;;;1.10;99.90;;;;;;4163218;28;20321;-70
2023/02/03 07:13:23;;;;;;;5.33;3.80;;;1.10;99.90;;;;;;4162464;28;20247;-66
2023/02/03 07:15:24;;;;;;;8.07;4.23;;;1.10;99.90;;;;;;4162314;28;21148;-67
2023/02/03 07:17:25;;;;;;;8.77;3.70;;;1.10;99.90;;;;;;4145447;28;20267;-65
2023/02/03 07:19:26;;;;;;;5.67;3.70;;;1.20;99.90;;;;;;4161823;28;20275;-72
2023/02/03 07:21:27;;;;;;;7.00;4.70;;;1.20;99.90;;;;;;4163791;28;20341;-70
2023/02/03 07:23:28;;;;;;;8.10;3.93;;;1.20;99.90;;;;;;4162648;28;20674;-64
2023/02/03 07:25:30;;;;;;;9.33;4.13;;;1.30;99.90;;;;;;4163121;28;20584;-72
2023/02/03 07:27:31;;;;;;;5.93;3.10;;;1.50;99.90;;;;;;4161921;28;20325;-63
2023/02/03 07:29:32;;;;;;;3.70;2.53;;;1.70;99.90;;;;;;4163472;28;20735;-67
2023/02/03 07:31:34;;;;;;;4.30;2.60;;;1.70;99.90;;;;;;4162082;28;20267;-62
2023/02/03 07:33:37;;;;;;;4.87;2.90;;;2.10;99.90;;;;;;4163560;28;20263;-68
2023/02/03 07:35:38;;;;;;;5.23;3.10;;;2.40;99.90;;;;;;4162080;28;20717;-63
2023/02/03 07:37:40;;;;;;;24.70;10.07;;;2.80;99.90;;;;;;4163098;28;20278;-73
2023/02/03 07:39:42;;;;;;;9.60;5.43;;;3.00;99.90;;;;;;4162856;28;20576;-63
2023/02/03 07:41:43;;;;;;;6.07;3.83;;;3.20;99.90;;;;;;4161918;28;20275;-70
2023/02/03 07:43:44;;;;;;;9.37;4.53;;;3.30;99.90;;;;;;4162776;28;20785;-68
2023/02/03 07:45:45;;;;;;;6.40;3.23;;;3.40;99.90;;;;;;4162011;28;20793;-66
2023/02/03 07:47:48;;;;;;;10.13;6.30;;;3.60;99.90;;;;;;4163787;28;20340;-63
2023/02/03 07:49:49;;;;;;;8.47;4.33;;;3.60;99.90;;;;;;4161951;28;20251;-66
2023/02/03 07:51:50;;;;;;;5.40;4.53;;;3.70;99.90;;;;;;4163321;28;20263;-64
2023/02/03 07:53:51;;;;;;;4.63;2.30;;;3.90;99.90;;;;;;4161911;28;20661;-64
2023/02/03 07:55:52;;;;;;;6.50;2.67;;;3.90;99.90;;;;;;4163106;28;20294;-73
2023/02/03 07:57:55;;;;;;;6.17;3.93;;;4.10;99.90;;;;;;4161644;28;20811;-68
2023/02/03 07:59:56;;;;;;;4.30;2.40;;;4.20;99.90;;;;;;4163131;28;20735;-70
2023/02/03 08:01:57;;;;;;;3.67;2.73;;;4.10;99.90;;;;;;4161908;28;20320;-72
2023/02/03 08:04:00;;;;;;;4.77;2.97;;;4.10;99.90;;;;;;4162575;28;20332;-67
2023/02/03 08:06:02;;;;;;;4.43;2.40;;;4.30;99.90;;;;;;4161753;28;20259;-67
2023/02/03 08:08:03;;;;;;;3.87;1.63;;;4.40;99.90;;;;;;4161808;28;20325;-64
2023/02/03 08:10:05;;;;;;;3.70;1.83;;;4.30;99.90;;;;;;4161953;28;20251;-64
2023/02/03 08:12:06;;;;;;;5.83;2.27;;;4.20;99.90;;;;;;4161682;28;20275;-64
2023/02/03 08:14:07;;;;;;;5.73;3.30;;;4.20;99.90;;;;;;4161656;28;20674;-63
2023/02/03 08:16:08;;;;;;;4.07;2.60;;;4.20;99.90;;;;;;4161277;28;20305;-68
2023/02/03 08:18:11;;;;;;;5.40;3.53;;;4.30;99.90;;;;;;4162891;28;20369;-69
2023/02/03 08:20:12;;;;;;;3.37;2.23;;;4.00;99.90;;;;;;4161403;28;20259;-64
2023/02/03 08:22:16;;;;;;;4.83;2.53;;;3.90;99.90;;;;;;4162662;28;20259;-64
2023/02/03 08:24:17;;;;;;;4.73;3.90;;;3.80;99.90;;;;;;4161326;28;20301;-70
2023/02/03 08:26:19;;;;;;;3.17;1.97;;;3.60;99.90;;;;;;4162513;28;20302;-64
2023/02/03 08:28:20;;;;;;;6.53;3.17;;;3.40;99.90;;;;;;4161243;28;20328;-64
2023/02/03 08:30:22;;;;;;;1.97;1.70;;;3.30;99.90;;;;;;4162100;28;20271;-67
2023/02/03 08:32:23;;;;;;;3.73;2.37;;;3.10;99.90;;;;;;4161577;28;20267;-63
2023/02/03 08:34:24;;;;;;;3.37;2.00;;;3.20;99.90;;;;;;4161675;28;20279;-67
2023/02/03 08:36:26;;;;;;;2.10;1.60;;;3.20;99.90;;;;;;4159665;28;20297;-63
2023/02/03 08:38:27;;;;;;;5.37;2.83;;;3.10;99.90;;;;;;4162672;28;20377;-63
2023/02/03 08:40:28;;;;;;;2.47;1.90;;;3.00;99.90;;;;;;4160474;28;20785;-63
2023/02/03 08:42:29;;;;;;;5.10;2.70;;;2.90;99.90;;;;;;4160740;28;20553;-64
2023/02/03 08:44:31;;;;;;;3.30;2.10;;;3.00;99.90;;;;;;4161271;28;20336;-64
2023/02/03 08:46:33;;;;;;;4.70;2.90;;;3.10;99.90;;;;;;4160659;28;20337;-70
2023/02/03 08:48:35;;;;;;;4.73;3.00;;;3.10;99.90;;;;;;4162306;28;20340;-64
2023/02/03 08:50:36;;;;;;;5.43;2.90;;;3.20;99.90;;;;;;4161266;28;20634;-65
2023/02/03 08:52:37;;;;;;;4.90;2.67;;;3.10;99.90;;;;;;4161746;28;20759;-63
2023/02/03 08:54:38;;;;;;;4.23;2.50;;;3.30;99.90;;;;;;4160404;28;20283;-64
2023/02/03 08:56:40;;;;;;;6.97;2.53;;;3.40;99.90;;;;;;4161406;28;20325;-66
2023/02/03 08:58:41;;;;;;;5.03;2.23;;;3.30;99.90;;;;;;4161008;28;20627;-72
2023/02/03 09:00:42;;;;;;;12.37;3.23;;;3.20;99.90;;;;;;4161872;28;20589;-70
2023/02/03 09:02:43;;;;;;;9.53;3.07;;;3.10;99.90;;;;;;4160239;28;20262;-73
2023/02/03 09:04:46;;;;;;;12.60;6.63;;;3.10;99.90;;;;;;4161366;28;20274;-65
2023/02/03 09:06:47;;;;;;;4.37;2.07;;;3.30;99.90;;;;;;4160911;28;20267;-64
2023/02/03 09:08:48;;;;;;;37.40;18.33;;;3.40;99.90;;;;;;4161963;28;20271;-70
2023/02/03 09:10:49;;;;;;;25.30;10.30;;;3.60;99.90;;;;;;4160790;28;20762;-70
2023/02/03 09:12:50;;;;;;;31.97;16.63;;;3.80;99.90;;;;;;4160816;28;20352;-73
2023/02/03 09:14:52;;;;;;;10.00;5.83;;;4.00;99.90;;;;;;4160720;28;20394;-66
2023/02/03 09:16:53;;;;;;;2.97;2.13;;;4.10;99.90;;;;;;4160665;28;20274;-64
2023/02/03 09:18:54;;;;;;;8.00;5.03;;;4.10;99.90;;;;;;4161744;28;20614;-63
2023/02/03 09:21:10;;;;;;;5.57;4.13;;;4.00;99.90;;;;;;4159892;28;20333;-72
2023/02/03 09:23:11;;;;;;;5.80;3.10;;;3.80;99.90;;;;;;4161442;28;20341;-65
2023/02/03 09:25:13;;;;;;;3.77;2.70;;;3.60;99.90;;;;;;4160673;28;20266;-68
2023/02/03 09:27:14;;;;;;;17.10;4.50;;;3.50;99.90;;;;;;4161126;28;20423;-62
2023/02/03 09:29:15;;;;;;;3.27;2.10;;;3.40;99.90;;;;;;4160120;28;20267;-66
2023/02/03 09:31:16;;;;;;;6.33;2.60;;;3.20;99.90;;;;;;4160958;28;20271;-70
2023/02/03 09:33:17;;;;;;;5.97;2.70;;;3.20;99.90;;;;;;4160573;28;20600;-65
2023/02/03 09:35:19;;;;;;;3.37;2.47;;;3.10;99.90;;;;;;4161508;28;20286;-68
2023/02/03 09:37:21;;;;;;;4.77;2.50;;;3.00;99.90;;;;;;4160478;28;20274;-63
2023/02/03 09:39:22;;;;;;;5.87;2.60;;;3.00;99.90;;;;;;4161275;28;20271;-68
2023/02/03 09:41:59;;;;;;;5.40;3.97;;;2.90;99.90;;;;;;4160259;28;20275;-70
2023/02/03 09:44:06;;;;;;;3.40;2.57;;;3.00;99.90;;;;;;4161235;28;20786;-66
2023/02/03 09:46:19;;;;;;;4.57;2.40;;;3.00;99.90;;;;;;4159463;28;20332;-63
2023/02/03 09:48:23;;;;;;;4.00;3.10;;;2.90;99.90;;;;;;4143558;28;20302;-63
2023/02/03 09:50:28;;;;;;;5.10;3.00;;;2.90;99.90;;;;;;4160232;28;20666;-67
2023/02/03 09:52:38;;;;;;;5.43;4.33;;;2.90;99.90;;;;;;4161133;28;20328;-67
2023/02/03 09:54:57;;;;;;;6.90;3.77;;;3.00;99.90;;;;;;4160253;28;20662;-68
2023/02/03 09:56:59;;;;;;;7.57;4.20;;;3.10;99.90;;;;;;4161021;28;20259;-71
2023/02/03 09:59:02;;;;;;;9.37;4.07;;;3.10;99.90;;;;;;4160104;28;20325;-63
2023/02/03 10:01:10;;;;;;;4.73;3.30;;;3.30;99.90;;;;;;4161151;28;20284;-70
2023/02/03 10:03:32;;;;;;;5.63;3.20;;;3.40;99.90;;;;;;4141752;28;20283;-72
2023/02/03 10:05:49;;;;;;;4.70;2.87;;;3.50;99.90;;;;;;4160785;28;20650;-73
2023/02/03 10:08:11;;;;;;;3.23;1.60;;;3.60;99.90;;;;;;4159991;28;20267;-64
2023/02/03 10:10:29;;;;;;;4.20;2.50;;;3.70;99.90;;;;;;4161151;28;20333;-69
2023/02/03 10:12:39;;;;;;;4.17;1.83;;;3.90;99.90;;;;;;4141745;28;20679;-64
2023/02/03 10:15:26;;;;;;;6.38;2.85;;;3.80;99.90;;;;;;4160977;28;20301;-63
2023/02/03 10:17:39;;;;;;;3.90;2.33;;;3.80;99.90;;;;;;4160426;28;20548;-66
2023/02/03 10:19:52;;;;;;;3.47;2.67;;;3.90;99.90;;;;;;4160433;28;20404;-64
2023/02/03 10:21:57;;;;;;;8.97;3.83;;;3.90;99.90;;;;;;4142371;28;20333;-66
2023/02/03 10:24:00;;;;;;;156.50;68.80;;;3.90;99.90;;;;;;4160139;28;20255;-67
2023/02/03 10:26:06;;;;;;;11.87;6.57;;;4.00;99.90;;;;;;4159691;28;20275;-66
2023/02/03 10:28:17;;;;;;;7.40;3.87;;;4.00;99.90;;;;;;4160246;28;20263;-62
2023/02/03 10:30:24;;;;;;;10.15;6.28;;;3.90;99.90;;;;;;4160099;28;20356;-73
2023/02/03 10:32:26;;;;;;;7.00;4.87;;;3.80;99.90;;;;;;4160624;28;20452;-72
2023/02/03 10:34:27;;;;;;;27.17;18.10;;;3.70;99.90;;;;;;4159847;28;20313;-63
2023/02/03 10:36:47;;;;;;;12.33;9.33;;;3.70;99.90;;;;;;4160049;28;20421;-73
2023/02/03 10:39:00;;;;;;;24.63;13.90;;;3.60;99.90;;;;;;4141834;28;20354;-69
2023/02/03 10:41:02;;;;;;;11.27;5.27;;;3.60;99.90;;;;;;4160427;28;20263;-64
2023/02/03 10:45:23;;;;;;;4.73;3.23;;;3.70;99.90;;;;;;4160224;28;20278;-63
2023/02/03 10:47:38;;;;;;;14.33;3.70;;;3.80;99.90;;;;;;4159847;28;20601;-69
2023/02/03 10:49:39;;;;;;;5.27;2.07;;;3.90;99.90;;;;;;4160991;28;20271;-71
2023/02/03 10:51:50;;;;;;;3.70;1.40;;;3.90;99.90;;;;;;4159163;28;20662;-63
2023/02/03 10:53:52;;;;;;;13.90;3.65;;;3.90;99.90;;;;;;4160666;28;20271;-63
2023/02/03 10:56:39;;;;;;;10.07;3.93;;;4.00;99.90;;;;;;4159556;28;20490;-67
2023/02/03 10:58:55;;;;;;;6.87;2.77;;;4.10;99.90;;;;;;4159586;28;20718;-70